createdAt,value
2023-04-02T00:01:37.800Z,99.38
2023-04-02T00:04:26.454Z,99.50
2023-04-02T00:06:55.965Z,100.00
2023-04-02T00:09:37.810Z,100.00
2023-04-02T00:12:20.011Z,99.42
2023-04-02T00:14:51.431Z,99.25
2023-04-02T00:17:19.879Z,98.77
2023-04-02T00:19:51.133Z,98.64
2023-04-02T00:22:22.444Z,99.01
2023-04-02T00:24:54.140Z,99.01
2023-04-02T00:27:21.853Z,98.26
2023-04-02T00:29:50.618Z,97.79
2023-04-02T00:32:22.423Z,96.73
2023-04-02T00:34:50.456Z,96.77
2023-04-02T00:37:23.873Z,96.87
2023-04-02T00:39:57.895Z,97.18
2023-04-02T00:42:29.126Z,97.30
2023-04-02T00:44:58.669Z,96.96
2023-04-02T00:47:28.209Z,97.12
2023-04-02T00:49:58.565Z,97.27
2023-04-02T00:52:28.104Z,97.24
2023-04-02T00:55:02.584Z,97.26
2023-04-02T00:57:31.030Z,96.93
2023-04-02T01:00:03.007Z,97.51
2023-04-02T01:02:33.617Z,97.78
2023-04-02T01:05:03.477Z,98.08
2023-04-02T01:07:47.391Z,97.49
2023-04-02T01:10:37.169Z,97.93
2023-04-02T01:13:14.758Z,98.43
2023-04-02T01:15:43.991Z,97.51
2023-04-02T01:18:31.178Z,96.70
2023-04-02T01:21:23.615Z,96.67
2023-04-02T01:23:58.267Z,96.25
2023-04-02T01:26:37.809Z,96.60
2023-04-02T01:29:10.328Z,96.02
2023-04-02T01:31:39.199Z,96.18
2023-04-02T01:34:10.042Z,96.55
2023-04-02T01:36:41.819Z,96.15
2023-04-02T01:39:16.529Z,96.28
2023-04-02T01:41:48.585Z,96.73
2023-04-02T01:44:21.852Z,96.58
2023-04-02T01:46:50.675Z,96.61
2023-04-02T01:49:21.212Z,95.13
2023-04-02T01:51:54.002Z,95.44
2023-04-02T01:54:22.695Z,95.10
2023-04-02T01:56:51.326Z,95.32
2023-04-02T01:59:22.301Z,95.24
2023-04-02T02:01:59.815Z,95.64
2023-04-02T02:04:27.865Z,95.27
2023-04-02T02:06:58.626Z,94.76
2023-04-02T02:09:28.753Z,95.04
2023-04-02T02:11:57.896Z,95.36
2023-04-02T02:14:28.908Z,96.08
2023-04-02T02:16:57.751Z,95.31
2023-04-02T02:19:27.620Z,94.79
2023-04-02T02:21:56.304Z,94.83
2023-04-02T02:24:26.244Z,94.72
2023-04-02T02:27:03.609Z,95.06
2023-04-02T02:29:36.682Z,95.01
2023-04-02T02:32:05.524Z,95.26
2023-04-02T02:34:37.813Z,96.48
2023-04-02T02:37:07.676Z,96.07
2023-04-02T02:39:38.553Z,96.57
2023-04-02T02:42:10.487Z,95.52
2023-04-02T02:44:43.177Z,94.80
2023-04-02T02:47:14.848Z,94.75
2023-04-02T02:49:44.603Z,94.64
2023-04-02T02:52:17.550Z,95.04
2023-04-02T02:54:55.249Z,95.42
2023-04-02T02:57:28.771Z,95.16
2023-04-02T02:59:59.783Z,95.39
2023-04-02T03:02:29.062Z,96.45
2023-04-02T03:04:59.329Z,95.35
2023-04-02T03:07:30.297Z,95.43
2023-04-02T03:10:05.496Z,94.87
2023-04-02T03:12:43.562Z,94.35
2023-04-02T03:15:19.644Z,95.45
2023-04-02T03:17:52.777Z,94.63
2023-04-02T03:20:23.294Z,95.16
2023-04-02T03:22:54.954Z,95.83
2023-04-02T03:25:27.861Z,94.41
2023-04-02T03:28:00.662Z,94.63
2023-04-02T03:30:33.029Z,93.78
2023-04-02T03:33:03.830Z,94.05
2023-04-02T03:35:35.666Z,94.02
2023-04-02T03:38:07.379Z,93.73
2023-04-02T03:40:39.062Z,94.19
2023-04-02T03:43:14.979Z,93.14
2023-04-02T03:45:47.064Z,92.88
2023-04-02T03:48:19.067Z,93.60
2023-04-02T03:50:52.045Z,93.49
2023-04-02T03:53:24.142Z,93.72
2023-04-02T03:55:52.666Z,92.95
2023-04-02T03:58:22.950Z,94.13
2023-04-02T04:00:55.275Z,93.75
2023-04-02T04:03:26.011Z,93.50
2023-04-02T04:05:57.291Z,94.26
2023-04-02T04:08:28.374Z,93.72
2023-04-02T04:10:58.945Z,93.87
2023-04-02T04:13:30.283Z,94.83
2023-04-02T04:16:03.185Z,94.58
2023-04-02T04:18:37.844Z,94.40
2023-04-02T04:21:13.245Z,94.74
2023-04-02T04:23:49.816Z,94.66
2023-04-02T04:26:21.204Z,94.12
2023-04-02T04:28:59.817Z,94.28
2023-04-02T04:31:38.925Z,94.01
2023-04-02T04:34:09.708Z,93.77
2023-04-02T04:36:53.812Z,92.76
2023-04-02T04:39:30.448Z,93.82
2023-04-02T04:42:00.368Z,93.73
2023-04-02T04:44:36.968Z,93.64
2023-04-02T04:47:09.392Z,93.84
2023-04-02T04:49:40.547Z,93.91
2023-04-02T04:52:10.208Z,93.96
2023-04-02T04:54:39.339Z,93.52
2023-04-02T04:57:22.851Z,93.75
2023-04-02T04:59:54.387Z,93.64
2023-04-02T05:02:25.201Z,93.79
2023-04-02T05:04:54.701Z,93.05
2023-04-02T05:07:27.348Z,93.43
2023-04-02T05:09:58.542Z,92.24
2023-04-02T05:12:32.673Z,92.75
2023-04-02T05:15:03.552Z,91.26
2023-04-02T05:17:36.581Z,92.07
2023-04-02T05:20:09.734Z,92.21
2023-04-02T05:22:43.687Z,91.47
2023-04-02T05:25:18.054Z,91.33
2023-04-02T05:27:49.472Z,91.51
2023-04-02T05:30:34.083Z,92.84
2023-04-02T05:33:07.864Z,92.18
2023-04-02T05:35:37.939Z,92.85
2023-04-02T05:38:06.567Z,91.88
2023-04-02T05:40:37.499Z,91.29
2023-04-02T05:43:09.927Z,92.06
2023-04-02T05:45:42.821Z,92.36
2023-04-02T05:48:17.597Z,92.98
2023-04-02T05:50:46.853Z,92.38
2023-04-02T05:53:22.570Z,92.82
2023-04-02T05:55:54.678Z,92.54
2023-04-02T06:01:08.817Z,92.93
2023-04-02T06:03:46.025Z,92.93
2023-04-02T06:06:20.473Z,92.71
2023-04-02T06:08:53.438Z,93.13
2023-04-02T06:11:23.943Z,91.99
2023-04-02T06:13:52.682Z,92.95
2023-04-02T06:16:27.530Z,93.51
2023-04-02T06:18:57.479Z,93.71
2023-04-02T06:21:26.906Z,92.99
2023-04-02T06:23:57.349Z,92.77
2023-04-02T06:26:29.872Z,92.97
2023-04-02T06:29:02.282Z,93.70
2023-04-02T06:31:36.933Z,92.62
2023-04-02T06:34:16.246Z,91.43
2023-04-02T06:36:52.346Z,91.30
2023-04-02T06:39:22.813Z,91.41
2023-04-02T06:41:56.972Z,92.37
2023-04-02T06:44:33.972Z,92.64
2023-04-02T06:47:28.271Z,91.59
2023-04-02T06:50:02.386Z,92.02
2023-04-02T06:52:34.064Z,92.14
2023-04-02T06:55:08.336Z,92.13
2023-04-02T06:57:36.178Z,92.38
2023-04-02T07:00:05.075Z,92.33
2023-04-02T07:02:36.803Z,91.57
2023-04-02T07:05:09.868Z,91.24
2023-04-02T07:07:41.731Z,91.78
2023-04-02T07:10:12.707Z,91.58
2023-04-02T07:12:41.514Z,92.02
2023-04-02T07:15:12.193Z,91.05
2023-04-02T07:17:39.873Z,90.94
2023-04-02T07:20:21.650Z,91.25
2023-04-02T07:22:49.186Z,92.65
2023-04-02T07:25:16.851Z,92.24
2023-04-02T07:27:44.402Z,91.21
2023-04-02T07:30:14.803Z,90.94
2023-04-02T07:32:42.645Z,91.55
2023-04-02T07:35:12.678Z,91.97
2023-04-02T07:37:40.748Z,92.45
2023-04-02T07:40:16.743Z,92.91
2023-04-02T07:42:44.273Z,92.39
2023-04-02T07:45:12.413Z,92.92
2023-04-02T07:47:40.152Z,91.28
2023-04-02T07:50:09.441Z,93.19
2023-04-02T07:52:42.077Z,93.04
2023-04-02T07:55:10.756Z,93.09
2023-04-02T07:57:42.625Z,92.86
2023-04-02T08:00:13.516Z,92.43
2023-04-02T08:02:41.250Z,92.61
2023-04-02T08:05:10.480Z,92.32
2023-04-02T08:07:38.988Z,92.11
2023-04-02T08:10:10.504Z,91.37
2023-04-02T08:12:38.091Z,91.84
2023-04-02T08:15:06.921Z,92.51
2023-04-02T08:17:34.479Z,92.74
2023-04-02T08:20:02.022Z,92.60
2023-04-02T08:22:29.883Z,91.98
2023-04-02T08:24:57.555Z,92.01
2023-04-02T08:27:26.718Z,92.69
2023-04-02T08:29:55.318Z,90.67
2023-04-02T08:32:24.144Z,91.17
2023-04-02T08:34:51.841Z,91.70
2023-04-02T08:37:19.321Z,92.05
2023-04-02T08:39:46.825Z,92.55
2023-04-02T08:42:21.277Z,91.08
2023-04-02T08:45:08.024Z,91.69
2023-04-02T08:47:42.062Z,92.14
2023-04-02T08:50:16.627Z,91.39
2023-04-02T08:52:44.315Z,91.88
2023-04-02T08:55:20.145Z,92.19
2023-04-02T08:57:53.741Z,90.75
2023-04-02T09:00:28.797Z,90.64
2023-04-02T09:02:58.340Z,91.72
2023-04-02T09:05:29.583Z,91.80
2023-04-02T09:08:00.372Z,92.30
2023-04-02T09:10:35.346Z,91.30
2023-04-02T09:13:04.124Z,91.63
2023-04-02T09:15:35.418Z,89.14
2023-04-02T09:18:14.109Z,89.20
2023-04-02T09:20:41.906Z,90.24
2023-04-02T09:23:16.145Z,90.26
2023-04-02T09:25:54.093Z,90.04
2023-04-02T09:28:28.928Z,90.68
2023-04-02T09:31:03.091Z,91.50
2023-04-02T09:33:45.167Z,90.91
2023-04-02T09:36:20.738Z,90.47
2023-04-02T09:38:59.034Z,91.10
2023-04-02T09:41:28.632Z,91.88
2023-04-02T09:44:15.072Z,91.59
2023-04-02T09:46:52.869Z,91.70
2023-04-02T09:49:23.919Z,92.21
2023-04-02T09:52:09.757Z,92.40
2023-04-02T09:54:41.758Z,91.68
2023-04-02T09:57:21.273Z,91.64
2023-04-02T09:59:48.853Z,91.84
2023-04-02T10:02:29.920Z,91.97
2023-04-02T10:04:57.580Z,91.32
2023-04-02T10:07:34.660Z,92.45
2023-04-02T10:10:03.668Z,92.62
2023-04-02T10:12:36.518Z,93.03
2023-04-02T10:15:05.289Z,91.69
2023-04-02T10:17:37.277Z,92.50
2023-04-02T10:20:11.429Z,92.93
2023-04-02T10:22:38.904Z,92.02
2023-04-02T10:25:14.760Z,91.43
2023-04-02T10:27:48.266Z,92.21
2023-04-02T10:30:20.400Z,91.86
2023-04-02T10:32:51.357Z,91.76
2023-04-02T10:35:26.100Z,91.99
2023-04-02T10:38:15.790Z,92.33
2023-04-02T10:40:47.594Z,92.14
2023-04-02T10:43:40.593Z,92.03
2023-04-02T10:46:13.725Z,90.98
2023-04-02T10:48:48.596Z,90.75
2023-04-02T10:51:29.691Z,90.19
2023-04-02T10:54:00.216Z,91.39
2023-04-02T10:56:29.833Z,90.37
2023-04-02T10:59:02.488Z,90.71
2023-04-02T11:01:31.460Z,89.90
2023-04-02T11:04:02.851Z,89.24
2023-04-02T11:06:33.314Z,88.27
2023-04-02T11:09:04.890Z,88.96
2023-04-02T11:11:36.607Z,88.48
2023-04-02T11:14:06.433Z,89.78
2023-04-02T11:16:36.084Z,88.12
2023-04-02T11:19:22.612Z,87.99
2023-04-02T11:21:58.605Z,86.60
2023-04-02T11:24:37.894Z,86.40
2023-04-02T11:27:08.163Z,84.19
2023-04-02T11:29:37.581Z,84.94
2023-04-02T11:32:31.156Z,85.59
2023-04-02T11:35:06.681Z,85.78
2023-04-02T11:37:38.307Z,84.80
2023-04-02T11:40:46.743Z,84.90
2023-04-02T11:43:49.277Z,84.91
2023-04-02T11:46:46.432Z,84.11
2023-04-02T11:49:41.460Z,82.34
2023-04-02T11:52:27.420Z,81.42
2023-04-02T11:55:01.562Z,82.11
2023-04-02T11:57:51.084Z,81.48
2023-04-02T12:00:27.302Z,81.22
2023-04-02T12:03:06.786Z,79.57
2023-04-02T12:05:37.755Z,78.55
2023-04-02T12:08:16.619Z,77.27
2023-04-02T12:10:57.988Z,78.93
2023-04-02T12:13:54.188Z,78.81
2023-04-02T12:16:22.887Z,78.58
2023-04-02T12:18:54.038Z,79.32
2023-04-02T12:21:23.606Z,79.02
2023-04-02T12:23:53.867Z,79.36
2023-04-02T12:26:32.004Z,78.39
2023-04-02T12:29:24.742Z,79.13
2023-04-02T12:31:52.410Z,78.79
2023-04-02T12:34:21.361Z,79.34
2023-04-02T12:36:53.962Z,80.02
2023-04-02T12:39:21.900Z,80.28
2023-04-02T12:41:49.583Z,80.66
2023-04-02T12:44:18.852Z,81.02
2023-04-02T12:46:48.491Z,80.27
2023-04-02T12:49:33.215Z,80.34
2023-04-02T12:52:03.343Z,80.62
2023-04-02T12:54:34.352Z,80.45
2023-04-02T12:57:23.765Z,81.18
2023-04-02T12:59:51.348Z,81.58
2023-04-02T13:02:21.793Z,81.88
2023-04-02T13:04:50.229Z,82.53
2023-04-02T13:07:18.505Z,82.25
2023-04-02T13:09:48.401Z,83.02
2023-04-02T13:12:26.734Z,82.05
2023-04-02T13:14:55.847Z,82.29
2023-04-02T13:17:45.629Z,82.98
2023-04-02T13:20:38.522Z,82.95
2023-04-02T13:23:24.828Z,83.21
2023-04-02T13:25:52.810Z,83.26
2023-04-02T13:28:20.574Z,82.99
2023-04-02T13:30:48.225Z,82.57
2023-04-02T13:33:17.442Z,83.00
2023-04-02T13:35:45.415Z,83.03
2023-04-02T13:38:13.017Z,82.43
2023-04-02T13:40:41.243Z,82.49
2023-04-02T13:43:09.141Z,82.77
2023-04-02T13:45:38.562Z,82.79
2023-04-02T13:48:07.244Z,82.97
2023-04-02T13:50:37.181Z,82.94
2023-04-02T13:53:07.817Z,82.22
2023-04-02T13:55:39.637Z,81.33
2023-04-02T13:58:07.123Z,80.90
2023-04-02T14:00:36.764Z,81.17
2023-04-02T14:03:07.287Z,81.52
2023-04-02T14:05:41.713Z,81.84
2023-04-02T14:08:11.755Z,81.34
2023-04-02T14:10:50.553Z,81.53
2023-04-02T14:13:21.191Z,80.97
2023-04-02T14:15:56.307Z,80.98
2023-04-02T14:18:32.847Z,80.46
2023-04-02T14:21:08.866Z,80.39
2023-04-02T14:23:47.984Z,81.21
2023-04-02T14:26:22.243Z,82.38
2023-04-02T14:28:57.389Z,82.72
2023-04-02T14:31:28.981Z,83.01
2023-04-02T14:34:03.693Z,81.35
2023-04-02T14:36:40.080Z,80.82
2023-04-02T14:39:13.326Z,80.94
2023-04-02T14:41:44.074Z,81.30
2023-04-02T14:44:12.460Z,81.48
2023-04-02T14:46:41.979Z,81.60
2023-04-02T14:49:20.857Z,81.69
2023-04-02T14:51:50.737Z,81.34
2023-04-02T14:54:23.583Z,80.93
2023-04-02T14:56:54.054Z,81.21
2023-04-02T14:59:26.741Z,81.79
2023-04-02T15:01:57.568Z,81.64
2023-04-02T15:04:28.612Z,81.11
2023-04-02T15:07:04.273Z,81.01
2023-04-02T15:09:36.659Z,80.71
2023-04-02T15:12:08.644Z,80.96
2023-04-02T15:14:40.215Z,80.46
2023-04-02T15:17:11.382Z,79.11
2023-04-02T15:19:39.052Z,78.88
2023-04-02T15:22:18.601Z,78.88
2023-04-02T15:24:52.379Z,78.69
2023-04-02T15:27:29.139Z,79.26
2023-04-02T15:30:01.295Z,78.55
2023-04-02T15:32:31.811Z,79.02
2023-04-02T15:35:02.588Z,79.17
2023-04-02T15:37:36.375Z,78.96
2023-04-02T15:40:24.781Z,78.77
2023-04-02T15:42:56.089Z,79.50
2023-04-02T15:45:28.131Z,80.24
2023-04-02T15:48:20.380Z,80.10
2023-04-02T15:50:57.708Z,80.53
2023-04-02T15:53:34.752Z,79.63
2023-04-02T15:56:09.679Z,79.94
2023-04-02T15:58:48.405Z,79.25
2023-04-02T16:01:18.486Z,79.33
2023-04-02T16:04:04.506Z,79.29
2023-04-02T16:06:38.888Z,79.61
2023-04-02T16:09:19.441Z,79.82
2023-04-02T16:11:46.954Z,79.86
2023-04-02T16:14:22.315Z,80.26
2023-04-02T16:16:51.745Z,80.18
2023-04-02T16:19:25.589Z,79.96
2023-04-02T16:21:59.706Z,79.65
2023-04-02T16:24:28.494Z,80.31
2023-04-02T16:27:00.048Z,80.30
2023-04-02T16:29:47.531Z,80.38
2023-04-02T16:32:26.422Z,80.48
2023-04-02T16:35:12.947Z,80.22
2023-04-02T16:37:49.701Z,79.70
2023-04-02T16:40:29.774Z,79.04
2023-04-02T16:43:04.741Z,79.40
2023-04-02T16:45:36.728Z,79.17
2023-04-02T16:48:10.799Z,79.18
2023-04-02T16:50:45.223Z,79.44
2023-04-02T16:53:22.173Z,79.52
2023-04-02T16:56:03.311Z,79.19
2023-04-02T16:58:43.500Z,79.67
2023-04-02T17:01:17.947Z,79.08
2023-04-02T17:04:02.559Z,78.17
2023-04-02T17:06:39.485Z,78.58
2023-04-02T17:09:12.705Z,77.78
2023-04-02T17:11:43.102Z,77.88
2023-04-02T17:14:21.071Z,77.19
2023-04-02T17:16:51.795Z,77.15
2023-04-02T17:19:20.781Z,77.00
2023-04-02T17:21:51.982Z,76.44
2023-04-02T17:24:24.505Z,76.21
2023-04-02T17:26:55.612Z,75.91
2023-04-02T17:29:28.535Z,75.56
2023-04-02T17:32:00.836Z,75.71
2023-04-02T17:34:28.972Z,75.92
2023-04-02T17:37:03.894Z,75.62
2023-04-02T17:39:36.196Z,75.38
2023-04-02T17:42:15.571Z,75.32
2023-04-02T17:44:49.442Z,75.18
2023-04-02T17:47:21.056Z,74.89
2023-04-02T17:49:59.572Z,73.53
2023-04-02T17:52:31.303Z,72.32
2023-04-02T17:55:05.785Z,70.97
2023-04-02T17:57:44.263Z,71.13
2023-04-02T18:00:20.377Z,70.70
2023-04-02T18:02:59.760Z,70.11
2023-04-02T18:05:31.443Z,70.04
2023-04-02T18:08:07.971Z,70.35
2023-04-02T18:10:39.749Z,69.80
2023-04-02T18:13:16.492Z,69.85
2023-04-02T18:15:57.668Z,71.08
2023-04-02T18:18:34.867Z,70.82
2023-04-02T18:21:09.379Z,70.96
2023-04-02T18:23:45.603Z,70.49
2023-04-02T18:26:17.749Z,70.05
2023-04-02T18:28:53.101Z,70.27
2023-04-02T18:31:28.338Z,69.56
2023-04-02T18:34:10.997Z,70.02
2023-04-02T18:36:43.547Z,70.13
2023-04-02T18:39:15.505Z,69.42
2023-04-02T18:41:47.192Z,69.66
2023-04-02T18:44:23.737Z,69.74
2023-04-02T18:46:53.382Z,70.11
2023-04-02T18:49:27.214Z,70.57
2023-04-02T18:51:58.561Z,70.10
2023-04-02T18:54:30.014Z,70.85
2023-04-02T18:56:57.597Z,70.96
2023-04-02T18:59:40.065Z,71.00
2023-04-02T19:02:25.383Z,70.84
2023-04-02T19:04:59.151Z,69.06
2023-04-02T19:07:29.093Z,69.80
2023-04-02T19:09:57.808Z,70.84
2023-04-02T19:12:25.492Z,71.16
2023-04-02T19:14:56.083Z,71.07
2023-04-02T19:17:29.192Z,71.21
2023-04-02T19:20:05.344Z,72.03
2023-04-02T19:22:40.458Z,71.59
2023-04-02T19:25:28.675Z,71.84
2023-04-02T19:28:08.932Z,71.90
2023-04-02T19:31:00.250Z,71.84
2023-04-02T19:33:36.114Z,72.00
2023-04-02T19:36:09.969Z,71.80
2023-04-02T19:38:52.772Z,72.08
2023-04-02T19:41:26.437Z,72.70
2023-04-02T19:43:54.255Z,72.63
2023-04-02T19:46:23.191Z,72.68
2023-04-02T19:48:57.454Z,72.85
2023-04-02T19:51:25.056Z,73.20
2023-04-02T19:53:52.701Z,74.34
2023-04-02T19:56:21.843Z,74.31
2023-04-02T19:58:49.376Z,74.63
2023-04-02T20:01:17.142Z,74.32
2023-04-02T20:03:46.112Z,74.33
2023-04-02T20:06:13.604Z,74.22
2023-04-02T20:08:41.081Z,74.22
2023-04-02T20:11:08.772Z,74.43
2023-04-02T20:13:36.508Z,74.08
2023-04-02T20:16:05.690Z,73.96
2023-04-02T20:18:33.282Z,73.87
2023-04-02T20:21:06.456Z,74.14
2023-04-02T20:23:34.273Z,74.00
2023-04-02T20:26:02.606Z,74.16
2023-04-02T20:28:30.944Z,74.26
2023-04-02T20:31:07.971Z,74.49
2023-04-02T20:33:36.631Z,74.46
2023-04-02T20:36:07.378Z,74.32
2023-04-02T20:38:35.832Z,73.97
2023-04-02T20:41:04.925Z,74.07
2023-04-02T20:43:32.700Z,74.60
2023-04-02T20:46:03.767Z,74.40
2023-04-02T20:48:32.307Z,74.68
2023-04-02T20:51:00.562Z,74.58
2023-04-02T20:53:31.762Z,73.85
2023-04-02T20:56:03.743Z,74.03
2023-04-02T20:58:31.287Z,74.11
2023-04-02T21:01:07.526Z,73.83
2023-04-02T21:03:35.036Z,74.27
2023-04-02T21:06:02.722Z,73.46
2023-04-02T21:08:31.539Z,73.48
2023-04-02T21:11:03.520Z,73.61
2023-04-02T21:13:31.610Z,73.49
2023-04-02T21:15:59.517Z,73.54
2023-04-02T21:18:27.256Z,73.27
2023-04-02T21:20:59.544Z,73.29
2023-04-02T21:23:27.346Z,73.13
2023-04-02T21:26:00.829Z,73.04
2023-04-02T21:28:29.135Z,73.05
2023-04-02T21:31:03.359Z,72.70
2023-04-02T21:33:31.629Z,72.58
2023-04-02T21:36:06.478Z,72.49
2023-04-02T21:38:34.289Z,72.28
2023-04-02T21:41:12.638Z,72.93
2023-04-02T21:43:40.312Z,73.74
2023-04-02T21:46:07.884Z,74.69
2023-04-02T21:48:35.493Z,75.15
2023-04-02T21:51:11.261Z,75.09
2023-04-02T21:53:39.099Z,74.54
2023-04-02T21:56:07.845Z,75.07
2023-04-02T21:58:36.676Z,74.55
2023-04-02T22:01:07.120Z,74.54
2023-04-02T22:03:36.670Z,74.58
2023-04-02T22:06:05.996Z,73.69
2023-04-02T22:08:33.737Z,73.40
2023-04-02T22:11:06.634Z,73.87
2023-04-02T22:13:34.888Z,73.97
2023-04-02T22:16:06.870Z,73.59
2023-04-02T22:18:35.588Z,73.44
2023-04-02T22:21:03.113Z,73.56
2023-04-02T22:23:30.939Z,73.65
2023-04-02T22:25:59.748Z,73.27
2023-04-02T22:28:27.598Z,73.18
2023-04-02T22:30:56.292Z,73.56
2023-04-02T22:33:27.240Z,73.15
2023-04-02T22:35:54.914Z,74.08
2023-04-02T22:38:22.445Z,73.90
2023-04-02T22:40:49.907Z,74.02
2023-04-02T22:43:17.454Z,74.22
2023-04-02T22:45:45.372Z,74.13
2023-04-02T22:48:12.857Z,74.21
2023-04-02T22:50:41.915Z,74.22
2023-04-02T22:53:11.839Z,74.42
2023-04-02T22:55:39.402Z,74.31
2023-04-02T22:58:06.875Z,74.55
2023-04-02T23:00:34.858Z,74.75
2023-04-02T23:03:02.812Z,74.82
2023-04-02T23:05:30.650Z,75.00
2023-04-02T23:07:59.677Z,75.27
2023-04-02T23:10:30.553Z,75.41
2023-04-02T23:12:58.373Z,75.41
2023-04-02T23:15:26.004Z,75.20
2023-04-02T23:17:53.552Z,75.43
2023-04-02T23:20:21.133Z,75.54
2023-04-02T23:22:48.625Z,75.29
2023-04-02T23:25:17.584Z,75.07
2023-04-02T23:27:45.042Z,75.85
2023-04-02T23:30:12.982Z,76.20
2023-04-02T23:32:40.613Z,76.18
2023-04-02T23:35:08.577Z,75.96
2023-04-02T23:37:36.113Z,75.47
2023-04-02T23:40:03.790Z,75.45
2023-04-02T23:42:32.732Z,75.43
2023-04-02T23:45:00.232Z,75.87
2023-04-02T23:47:27.749Z,75.95
2023-04-02T23:49:55.244Z,75.86
2023-04-02T23:52:22.728Z,75.77
2023-04-02T23:54:50.228Z,76.15
2023-04-02T23:57:18.033Z,76.09
2023-04-02T23:59:46.833Z,76.98
